Date,TemperatureHighF,TemperatureAvgF,TemperatureLowF,DewpointHighF,DewpointAvgF,DewpointLowF,HumidityHigh,HumidityAvg,HumidityLow,PressureMaxIn,PressureMinIn,WindSpeedMaxMPH,WindSpeedAvgMPH,GustSpeedMaxMPH,PrecipitationSumIn
2013-1-1,48.2,44.0,40.0,39.0,35.1,29.3,86,71,52,29.98,29.84,6,0,6,0.12
2013-1-2,45.2,38.6,33.3,36.2,32.1,26.8,88,78,59,30.17,29.93,6,0,6,0.07
2013-1-3,41.4,33.8,24.5,27.4,23.2,19.3,81,65,51,30.21,30.11,5,0,5,0.00
2013-1-4,47.9,34.8,22.0,27.4,22.7,17.6,85,64,40,30.19,30.07,10,1,10,0.01
2013-1-5,50.6,37.3,25.6,29.8,23.9,18.3,78,60,39,30.33,30.14,6,0,6,0.00
2013-1-6,54.2,44.2,34.7,37.5,32.3,28.5,82,64,45,30.16,29.98,8,1,8,0.02
2013-1-7,49.5,40.5,28.6,34.2,29.3,22.0,84,65,48,30.39,30.09,9,1,9,0.00
2013-1-8,50.9,39.9,26.5,37.8,31.5,21.7,86,72,59,30.41,30.32,6,0,6,0.00
2013-1-9,64.1,47.0,31.9,52.4,39.9,27.5,89,77,64,30.34,30.21,11,1,11,0.00
2013-1-10,59.8,44.4,33.1,40.8,34.0,29.3,89,69,37,30.53,30.33,5,0,5,0.00
2013-1-11,46.8,41.6,32.8,43.7,37.3,27.5,91,85,75,30.45,30.06,5,0,5,0.07
2013-1-12,54.0,48.5,45.4,50.1,45.7,42.9,92,90,86,30.13,30.04,4,0,4,0.01
2013-1-13,70.4,58.5,49.5,62.6,55.1,47.0,94,89,75,30.08,29.96,6,1,6,0.00
2013-1-14,64.3,57.2,43.0,61.0,53.8,40.1,91,88,85,30.22,29.97,8,1,8,0.46
2013-1-15,43.0,40.9,39.4,40.3,38.5,37.3,92,91,88,30.27,30.06,8,1,8,0.96
2013-1-16,44.5,40.1,36.9,41.9,37.7,34.7,92,91,90,30.06,29.87,4,0,4,0.39
2013-1-17,45.7,40.6,33.5,43.3,38.2,31.1,92,91,87,30.09,29.92,6,0,6,0.91
2013-1-18,40.7,33.9,28.3,32.1,28.9,24.5,92,83,55,30.46,30.05,3,0,6,0.10
2013-1-19,52.9,39.8,28.3,34.8,29.0,24.7,88,67,43,30.41,30.02,9,1,9,0.12
2013-1-20,60.8,47.2,32.4,38.0,31.4,23.8,71,56,35,30.01,29.83,14,2,14,0.00
2013-1-21,54.4,40.0,25.4,31.1,24.1,7.4,81,56,29,30.04,29.74,10,1,10,0.00
2013-1-22,37.8,28.1,18.9,11.7,3.8,-3.4,57,36,23,30.24,29.87,15,2,15,0.00
2013-1-23,34.2,24.3,11.3,19.7,6.1,1.3,74,48,27,30.30,30.05,12,1,12,0.00
2013-1-24,31.0,24.4,14.9,21.1,11.9,2.9,85,61,33,30.49,29.96,14,1,14,0.00
2013-1-25,27.0,20.4,12.8,19.3,11.8,3.7,79,70,44,30.47,30.03,5,0,5,0.00
2013-1-26,41.2,31.2,24.5,28.7,23.6,18.6,81,74,58,30.38,30.01,5,0,5,0.04
2013-1-27,41.8,32.4,23.8,26.4,23.1,18.3,82,69,49,30.56,30.38,7,0,7,0.00
2013-1-28,54.4,43.1,32.0,45.6,35.4,24.8,88,75,62,30.44,30.06,12,2,12,0.16
2013-1-29,74.9,58.0,41.9,58.0,48.5,37.1,87,72,54,30.10,29.96,7,1,7,0.00
2013-1-30,71.5,67.4,61.7,62.8,59.9,53.5,85,77,70,29.97,29.25,10,2,10,0.05
2013-1-31,67.3,47.2,31.3,62.3,30.6,17.9,89,54,33,29.91,29.19,27,6,27,0.71
2013-2-1,37.3,31.5,19.8,25.4,11.4,2.4,68,45,27,30.33,29.73,18,2,18,0.00
2013-2-2,37.8,27.4,16.2,25.1,14.6,6.0,82,60,37,30.34,29.94,8,1,8,0.00
2013-2-3,43.6,35.2,27.7,32.0,25.5,18.4,82,69,50,29.94,29.78,12,1,12,0.00
2013-2-4,41.2,33.3,21.6,25.3,19.7,14.5,76,58,44,30.07,29.87,9,1,9,0.00
2013-2-5,58.7,47.0,39.8,37.6,31.3,24.9,67,55,44,29.88,29.76,10,2,10,0.00
2013-2-6,56.5,39.7,28.4,37.3,28.6,23.0,83,66,38,30.29,29.87,7,1,7,0.00
2013-2-7,45.4,37.1,28.1,33.5,27.8,22.0,83,70,55,30.36,30.09,6,1,6,0.05
2013-2-8,49.3,41.4,35.8,41.0,35.2,25.7,91,79,54,30.10,29.69,15,2,15,0.47
2013-2-9,49.7,37.7,25.9,26.9,21.0,15.4,76,53,27,30.33,29.89,11,1,11,0.00
2013-2-10,49.3,36.1,21.6,28.8,21.7,14.6,78,58,36,30.45,30.19,5,0,5,0.00
2013-2-11,60.8,50.7,39.8,55.3,45.4,28.5,92,82,55,30.19,29.76,15,2,15,0.07
2013-2-12,60.7,50.9,39.2,45.4,32.7,27.0,71,51,31,29.96,29.77,10,1,10,0.00
2013-2-13,47.9,42.4,37.3,39.6,35.4,31.2,90,77,65,29.88,29.57,8,1,8,0.04
2013-2-14,52.6,39.4,28.4,39.5,30.9,24.8,90,74,44,29.99,29.74,8,0,8,0.00
2013-2-15,63.2,45.3,29.5,41.7,31.7,25.4,87,63,30,30.00,29.84,11,1,11,0.00
2013-2-16,41.8,36.3,31.5,35.7,31.1,17.6,89,82,57,29.97,29.79,8,1,8,0.07
2013-2-17,35.8,29.4,23.0,18.6,10.9,3.7,75,48,29,30.18,29.80,16,3,16,0.00
2013-2-18,49.0,32.7,15.3,22.8,13.9,6.4,73,48,25,30.34,30.15,8,1,8,0.00
2013-2-19,48.8,42.5,35.8,44.6,33.6,21.0,89,72,44,30.15,29.72,11,1,11,0.12
2013-2-20,47.9,36.5,24.7,31.2,21.2,15.0,85,57,31,30.10,29.82,14,2,14,0.00
2013-2-21,46.3,34.4,24.5,21.4,17.6,14.9,69,51,33,30.25,30.07,13,1,13,0.00
2013-2-22,39.6,35.4,32.8,32.1,24.8,17.7,86,65,53,30.31,30.15,6,0,6,0.03
2013-2-23,44.1,39.0,35.5,41.1,36.0,31.0,92,89,83,30.15,29.76,5,0,5,0.06
2013-2-24,58.0,45.7,33.8,44.5,37.0,22.9,92,73,36,30.06,29.74,10,1,10,0.00
2013-2-25,47.0,35.3,25.9,27.0,22.3,18.5,77,60,39,30.17,30.05,6,0,6,0.00
2013-2-26,50.6,38.9,27.0,48.0,34.8,20.1,93,85,74,30.16,29.50,10,1,10,0.40
2013-2-27,59.9,48.3,35.6,46.3,40.0,29.3,91,75,46,29.67,29.49,13,2,13,0.00
2013-2-28,51.7,43.5,36.0,36.7,30.8,24.1,84,62,39,29.72,29.58,14,2,14,0.00
2013-3-1,46.4,40.1,30.2,32.1,27.1,23.6,80,60,49,29.86,29.71,10,1,10,0.00
2013-3-2,40.0,36.0,30.1,25.7,23.9,22.0,79,62,52,29.87,29.78,7,1,7,0.00
2013-3-3,47.2,35.2,24.8,26.1,21.4,16.6,82,59,37,29.89,29.74,9,1,9,0.00
2013-3-4,49.7,34.0,20.3,21.4,16.9,13.3,77,53,28,30.00,29.88,12,1,12,0.00
2013-3-5,51.5,37.7,24.1,35.4,24.9,15.8,89,62,35,30.03,29.65,7,1,7,0.32
2013-3-6,39.4,35.8,32.9,34.3,32.6,30.8,92,88,72,29.93,29.38,17,3,17,1.36
2013-3-7,51.1,40.6,31.0,31.8,28.1,24.3,85,63,42,30.12,29.93,14,2,14,0.16
2013-3-8,49.5,41.1,30.4,30.1,27.7,24.4,80,60,45,30.22,30.08,16,3,16,0.00
2013-3-9,61.4,45.2,32.6,31.4,27.3,23.7,71,52,27,30.29,30.19,8,1,8,0.00
2013-3-10,65.9,47.9,27.7,39.3,27.3,18.7,83,51,19,30.28,30.16,9,1,9,0.00
2013-3-11,68.0,55.1,43.0,52.8,45.6,37.7,89,71,53,30.20,29.89,9,1,9,0.00
2013-3-12,68.8,59.0,44.3,61.6,52.0,34.2,91,78,63,29.91,29.68,10,2,10,0.42
2013-3-13,55.4,42.6,30.8,36.7,28.3,16.3,88,60,37,30.04,29.86,19,2,19,0.00
2013-3-14,52.6,39.5,27.0,21.8,18.6,14.4,70,45,24,30.12,29.98,13,2,13,0.00
2013-3-15,60.5,42.9,25.6,35.3,26.2,17.5,74,54,33,30.07,29.77,15,2,15,0.00
2013-3-16,70.9,53.2,40.3,55.1,43.9,30.5,91,72,52,29.82,29.53,13,1,13,0.21
2013-3-17,47.2,39.6,34.4,41.7,35.6,30.6,89,86,81,30.23,29.82,5,1,5,0.24
2013-3-18,36.5,34.6,33.3,33.8,32.0,30.5,91,90,87,30.23,29.83,5,1,5,0.48
2013-3-19,64.6,46.1,33.8,46.2,30.0,4.2,91,63,16,29.93,29.68,18,2,18,0.11
2013-3-20,58.1,45.1,27.7,24.5,16.9,7.8,66,35,18,29.99,29.71,17,2,17,0.00
2013-3-21,48.6,37.8,29.3,26.8,18.6,9.0,79,48,29,29.89,29.67,12,2,12,0.00
2013-3-22,51.1,37.0,24.5,21.2,16.3,10.5,63,44,28,29.95,29.84,12,2,12,0.00
2013-3-23,57.2,40.2,24.3,28.9,21.6,16.6,76,51,23,30.01,29.86,14,1,14,0.00
2013-3-24,41.9,36.2,32.4,32.0,27.2,21.0,89,70,54,29.92,29.58,6,1,6,0.03
2013-3-25,39.2,35.6,33.1,35.4,31.8,29.3,89,86,83,29.67,29.47,9,1,9,0.31
2013-3-26,51.3,39.1,29.7,35.1,28.6,25.0,88,68,41,29.98,29.67,10,1,10,0.00
2013-3-27,52.6,39.7,27.2,31.0,25.6,22.5,83,60,37,30.11,29.97,11,2,11,0.00
2013-3-28,55.3,43.9,29.0,30.0,26.4,22.1,78,52,36,30.20,30.07,13,2,13,0.00
2013-3-29,60.1,45.4,33.3,34.5,29.1,23.0,77,56,32,30.23,30.11,11,1,11,0.00
2013-3-30,65.5,48.6,31.7,37.1,30.3,25.3,81,53,26,30.18,30.04,12,1,12,0.00
2013-3-31,56.9,50.3,45.0,51.6,42.7,32.1,90,76,54,30.06,29.71,8,1,8,0.14
2013-4-1,72.2,53.4,37.1,48.7,38.7,25.1,91,61,35,29.94,29.70,19,3,19,0.00
2013-4-2,57.8,43.8,28.8,28.5,20.7,11.1,74,44,18,30.11,29.94,14,1,14,0.00
2013-4-3,58.5,42.7,25.6,27.8,18.0,11.9,73,42,17,30.32,30.11,13,2,13,0.00
2013-4-4,54.0,39.9,27.5,34.1,21.9,13.9,87,51,28,30.36,29.98,7,1,7,0.51
2013-4-5,66.6,49.2,37.1,43.8,35.8,29.8,91,65,28,29.99,29.79,10,1,10,0.34
2013-4-6,62.6,49.4,36.4,33.2,27.8,22.3,73,46,24,30.27,29.97,10,1,10,0.00
2013-4-7,73.3,55.5,33.5,44.8,37.1,26.0,79,52,34,30.24,29.99,11,2,11,0.00
2013-4-8,84.1,68.8,50.2,54.7,48.5,40.5,73,50,32,30.05,29.94,14,2,14,0.00
2013-4-9,89.5,74.9,57.8,59.5,53.8,48.0,73,50,30,30.08,29.95,12,2,12,0.00
2013-4-10,92.9,76.1,63.5,61.9,56.9,53.4,71,53,31,29.99,29.81,8,2,8,0.00
2013-4-11,88.6,75.9,60.5,62.8,58.5,52.2,77,56,38,29.87,29.72,12,2,12,0.00
2013-4-12,83.2,72.5,65.3,69.1,61.9,43.4,89,71,39,29.73,29.53,9,2,9,0.97
2013-4-13,74.7,62.3,45.7,55.0,44.0,39.6,83,54,30,29.91,29.65,12,1,12,0.00
2013-4-14,78.5,60.0,39.8,47.1,40.7,34.3,83,54,28,30.06,29.90,8,1,8,0.00
2013-4-15,68.4,59.3,52.6,56.0,49.7,39.9,88,71,48,30.22,30.04,6,1,6,0.07
2013-4-16,81.5,66.3,52.9,61.7,55.8,48.7,87,71,47,30.25,30.13,9,1,9,0.00
2013-4-17,84.6,74.6,62.8,64.8,61.3,55.8,83,64,49,30.15,30.07,6,1,6,0.00
2013-4-18,81.4,69.6,58.7,66.4,58.7,53.8,91,70,46,30.16,29.98,9,1,9,0.13
2013-4-19,82.1,71.0,65.2,67.7,63.0,58.4,90,77,59,29.99,29.62,17,2,17,1.00
2013-4-20,66.2,56.1,43.6,61.8,40.8,27.5,88,60,29,30.25,29.69,10,1,10,0.01
2013-4-21,61.2,48.4,38.3,36.8,32.0,28.8,77,55,32,30.50,30.25,7,1,7,0.00
2013-4-22,62.3,46.8,32.2,42.2,36.0,27.3,88,67,44,30.49,30.28,7,1,7,0.00
2013-4-23,65.0,52.1,44.8,49.9,43.8,39.7,82,74,53,30.29,30.06,7,1,7,0.00
2013-4-24,80.3,62.2,41.4,58.4,49.7,36.9,91,67,43,30.06,29.81,13,2,13,0.00
2013-4-25,70.4,59.9,49.0,55.6,40.8,32.9,75,51,29,30.21,29.89,10,2,10,0.00
2013-4-26,48.1,44.2,40.0,39.4,37.5,34.3,81,77,72,30.18,30.15,0,0,0,0.00
2013-4-27,76.7,68.5,55.1,48.4,44.7,41.7,63,44,31,30.34,30.23,8,1,8,0.00
2013-4-28,67.1,58.1,49.0,50.8,44.0,38.3,83,60,41,30.26,30.10,7,1,7,0.01
2013-4-29,64.8,58.4,53.6,60.6,54.9,48.6,91,88,83,30.11,29.95,6,0,6,0.85
2013-4-30,65.0,58.8,55.4,59.7,55.2,52.7,91,88,80,30.20,30.02,6,1,6,0.01
2013-5-1,73.3,60.7,49.1,55.6,50.1,42.5,92,71,42,30.36,30.19,7,1,7,0.00
2013-5-2,70.6,58.8,47.9,54.2,49.6,41.9,88,73,52,30.37,30.26,6,1,6,0.00
2013-5-3,74.0,56.0,41.4,54.7,45.1,37.4,91,70,37,30.29,30.22,10,1,10,0.00
2013-5-4,68.2,50.6,41.6,54.2,43.4,37.1,88,77,56,30.26,30.11,8,0,8,0.00
2013-5-5,68.2,53.9,41.4,52.3,45.6,36.9,88,74,53,30.15,30.07,6,1,6,0.00
2013-5-6,68.8,58.2,53.1,61.7,53.7,49.0,92,85,72,30.09,29.90,6,1,6,0.09
2013-5-7,73.8,62.5,55.8,66.5,59.1,52.9,93,89,66,29.94,29.79,8,1,8,3.05
2013-5-8,70.7,60.1,55.4,60.4,55.7,52.4,92,86,61,29.97,29.88,8,0,8,0.12
2013-5-9,81.5,67.0,53.6,63.1,57.5,51.3,92,74,47,29.99,29.91,10,1,10,0.00
2013-5-10,89.3,72.3,53.6,66.5,58.7,50.3,90,66,40,30.00,29.86,10,1,10,0.00
2013-5-11,81.9,72.1,62.6,65.7,62.0,57.3,88,72,54,29.90,29.70,15,2,15,0.54
2013-5-12,75.2,64.0,45.7,58.3,49.4,34.3,90,63,31,30.02,29.72,13,1,13,0.02
2013-5-13,66.4,51.4,37.4,44.0,35.5,30.4,88,59,30,30.13,30.00,10,1,10,0.00
2013-5-14,71.6,49.4,34.4,42.6,35.7,29.7,87,64,30,30.18,30.01,7,1,7,0.00
2013-5-15,90.2,77.5,57.8,64.7,58.3,41.2,63,52,42,30.02,29.73,12,2,12,0.00
2013-5-16,93.1,74.3,62.5,66.2,61.0,55.4,87,66,39,29.92,29.77,12,1,12,0.27
2013-5-17,87.5,71.4,59.8,67.1,59.6,49.4,91,69,34,30.13,29.90,8,1,8,0.07
2013-5-18,66.4,62.6,59.6,63.2,59.1,54.5,91,88,74,30.17,30.08,8,0,8,0.62
2013-5-19,76.9,68.3,62.3,70.1,64.0,59.7,92,86,74,30.15,30.05,5,0,5,0.07
2013-5-20,84.8,72.9,62.8,72.3,66.6,59.6,92,81,63,30.09,29.97,7,1,7,0.06
2013-5-21,84.4,73.6,68.4,72.8,67.6,64.5,90,82,66,30.00,29.88,7,1,7,0.00
2013-5-22,88.9,77.1,70.2,73.6,69.0,66.4,88,77,59,29.95,29.84,12,1,12,0.00
2013-5-23,85.3,76.2,68.8,71.0,67.6,63.9,88,75,58,29.91,29.75,8,2,8,0.08
2013-5-24,68.8,60.3,47.0,64.1,52.5,38.1,89,77,48,30.14,29.74,11,1,11,0.02
2013-5-25,73.1,55.0,41.2,46.2,37.9,32.1,78,56,25,30.20,30.06,10,1,10,0.00
2013-5-26,77.8,58.7,41.0,46.3,41.5,36.2,86,58,26,30.21,30.10,10,1,10,0.00
2013-5-27,77.6,61.0,43.6,58.8,50.0,38.5,87,69,37,30.24,30.14,6,0,6,0.00
2013-5-28,89.3,72.4,53.5,70.2,61.2,49.3,89,70,50,30.16,30.05,12,1,12,0.00
2013-5-29,92.9,77.3,69.1,70.7,64.5,62.1,80,66,45,30.13,30.08,7,1,7,0.00
2013-5-30,93.6,80.2,67.7,71.7,66.0,61.1,82,64,44,30.20,30.11,10,1,10,0.00
2013-5-31,93.6,82.7,63.0,72.0,66.1,59.1,88,59,42,30.16,30.03,11,2,11,0.00
2013-6-1,94.0,80.8,65.3,73.1,67.0,59.6,86,65,45,30.06,29.94,11,2,11,0.00
2013-6-2,89.1,77.8,67.7,71.8,67.3,64.0,88,71,53,29.95,29.86,13,2,13,0.78
2013-6-3,84.8,74.0,67.7,74.0,68.3,64.0,91,83,62,29.91,29.79,6,1,6,0.08
2013-6-4,82.1,70.5,54.9,64.5,51.8,44.3,88,55,33,30.11,29.93,7,1,7,0.00
2013-6-5,85.7,68.9,52.7,63.2,56.4,48.1,89,67,40,30.14,30.03,7,1,7,0.00
2013-6-6,78.8,69.3,58.9,67.1,61.1,52.4,87,76,64,30.05,29.80,11,2,11,0.01
2013-6-7,71.8,69.6,66.8,68.9,66.7,64.0,93,91,87,29.81,29.53,8,1,8,1.49
2013-6-8,83.2,69.5,64.8,71.1,65.4,61.0,93,87,61,30.05,29.74,6,0,6,0.25
2013-6-9,89.6,73.2,60.3,73.0,66.7,57.4,92,81,53,30.13,30.02,8,1,8,0.41
2013-6-10,84.6,74.9,68.0,74.8,69.7,65.0,92,84,69,30.06,29.81,10,1,10,0.20
2013-6-11,88.2,72.7,66.4,71.2,66.3,61.6,90,81,55,29.87,29.79,8,1,8,0.02
2013-6-12,93.2,73.0,63.2,74.4,66.0,59.9,91,80,54,29.88,29.78,8,0,8,0.00
2013-6-13,95.0,78.5,69.3,76.2,70.6,63.8,90,78,48,29.79,29.49,25,2,25,0.58
2013-6-14,78.8,69.9,60.1,61.5,57.5,54.5,85,66,48,29.97,29.70,10,2,10,0.00
2013-6-15,87.3,70.4,55.1,66.2,59.0,51.4,90,70,44,30.06,29.96,6,0,6,0.00
2013-6-16,91.1,76.8,61.9,71.9,65.9,56.9,87,71,51,30.01,29.90,10,2,10,0.09
2013-6-17,88.9,72.6,69.1,75.4,67.0,64.7,88,83,59,29.96,29.88,6,0,6,0.03
2013-6-18,76.3,69.0,63.9,71.5,65.2,60.7,91,88,84,29.92,29.76,4,0,4,0.54
2013-6-19,78.8,69.1,62.3,69.5,64.1,59.4,92,84,70,30.12,29.84,3,0,3,0.00
2013-6-20,84.1,70.8,60.5,66.0,61.1,53.3,90,73,49,30.24,30.11,6,0,6,0.00
2013-6-21,86.8,70.1,53.8,68.0,59.3,49.7,89,71,38,30.26,30.20,7,1,7,0.00
2013-6-22,88.2,73.0,61.9,73.7,65.7,57.7,88,79,57,30.23,30.14,9,1,9,0.04
2013-6-23,90.0,76.9,67.7,75.8,69.7,64.6,90,79,59,30.16,30.07,8,1,8,0.65
2013-6-24,93.4,79.4,69.8,76.9,70.9,65.3,87,76,54,30.13,30.02,8,1,8,0.00
2013-6-25,96.5,82.3,69.8,77.2,71.3,65.4,88,71,48,30.04,29.90,6,1,6,0.00
2013-6-26,96.5,79.1,68.8,77.8,70.4,64.4,87,76,52,29.92,29.81,12,1,12,0.20
2013-6-27,87.8,75.0,66.6,74.7,68.2,62.9,88,80,60,29.84,29.64,13,1,13,0.01
2013-6-28,94.5,81.0,69.3,75.8,70.3,64.7,86,71,51,29.67,29.48,9,1,9,0.00
2013-6-29,93.1,80.9,70.4,72.6,68.7,64.9,84,68,44,29.69,29.52,8,1,8,0.00
2013-6-30,90.9,78.0,68.6,75.8,70.3,64.2,89,78,56,29.85,29.68,10,1,10,0.64
2013-7-1,86.8,73.4,67.3,75.2,68.2,63.6,90,84,67,29.97,29.82,7,1,7,0.52
2013-7-2,80.6,73.2,69.3,73.3,68.2,64.7,88,84,77,30.18,29.96,8,1,8,0.21
2013-7-3,87.5,73.9,68.2,76.0,68.5,63.9,87,83,67,30.22,30.13,8,1,8,0.95
2013-7-4,92.7,79.8,69.8,75.3,70.0,64.9,88,73,52,30.25,30.15,8,1,8,0.00
2013-7-5,92.2,80.5,69.7,75.9,70.6,63.7,82,73,56,30.24,30.12,9,1,9,0.00
2013-7-6,93.1,81.4,70.0,76.7,70.6,64.5,83,71,51,30.19,30.08,7,1,7,0.00
2013-7-7,92.7,81.7,70.4,76.3,71.4,64.5,82,72,56,30.11,30.00,10,2,10,0.00
2013-7-8,89.3,77.4,67.0,75.1,68.7,61.5,84,75,56,30.12,30.04,8,1,10,0.06
2013-7-9,92.3,78.4,65.2,77.9,69.5,60.2,86,75,58,30.10,30.00,9,1,9,0.00
2013-7-10,94.3,77.8,66.8,79.2,69.4,61.3,86,76,54,30.02,29.88,12,1,12,0.89
2013-7-11,81.4,70.7,65.9,73.4,65.2,61.2,87,83,77,29.92,29.86,5,0,5,0.11
2013-7-12,75.6,67.1,62.8,68.1,62.0,58.4,89,84,79,30.02,29.85,4,0,5,0.35
2013-7-13,83.7,70.9,62.6,74.8,65.2,58.4,88,82,73,30.22,30.01,4,0,4,0.05
2013-7-14,91.6,77.7,66.2,77.3,69.2,60.9,87,76,59,30.31,30.22,5,0,5,0.00
2013-7-15,94.9,77.9,64.1,78.6,68.4,58.5,84,73,54,30.30,30.19,7,0,7,0.00
2013-7-16,94.7,78.6,67.0,79.7,68.9,60.5,82,73,57,30.21,30.13,7,1,7,0.16
2013-7-17,94.3,78.1,67.3,79.6,68.8,60.3,80,73,56,30.19,30.07,4,0,4,0.00
2013-7-18,96.3,80.5,68.9,81.5,69.7,60.5,77,70,56,30.11,29.99,8,0,8,0.00
2013-7-19,97.2,83.9,70.6,80.1,71.2,61.4,74,66,53,30.02,29.89,13,1,13,0.00
2013-7-20,96.1,82.1,73.6,79.4,70.7,63.9,73,69,57,29.93,29.83,10,2,10,0.00
2013-7-21,95.0,77.5,68.8,79.2,67.3,59.6,74,71,57,29.94,29.84,8,1,8,0.22
2013-7-22,91.8,78.0,68.0,76.7,66.7,59.1,74,68,60,29.92,29.76,9,1,9,0.00
2013-7-23,92.2,81.5,69.5,75.4,67.9,57.6,69,64,56,29.76,29.64,10,2,10,0.00
2013-7-24,88.4,75.4,66.4,74.1,63.3,55.1,69,66,60,29.86,29.65,6,0,6,0.00
2013-7-25,81.4,71.0,58.9,66.4,59.3,47.9,70,67,54,30.01,29.84,6,0,6,0.01
2013-7-26,86.6,68.8,54.5,68.5,55.9,44.2,69,64,49,30.08,29.99,6,0,6,0.00
2013-7-27,87.8,71.1,58.7,72.0,58.5,47.4,68,64,57,30.04,29.90,8,1,8,0.02
2013-7-28,91.1,74.0,65.5,73.8,60.2,52.1,67,62,53,29.95,29.86,8,1,8,0.30
2013-7-29,86.8,71.5,60.8,67.9,56.9,47.3,67,60,48,30.14,29.94,8,0,9,0.01
2013-7-30,85.7,69.0,55.1,69.5,54.6,41.8,66,60,49,30.20,30.12,5,0,5,0.00
2013-7-31,83.7,68.6,59.4,69.1,52.9,44.9,62,57,53,30.13,30.00,6,0,6,0.30
2013-8-1,76.9,69.7,65.3,51.0,36.2,7.4,53,33,1,30.00,29.83,10,1,10,2.30
2013-8-2,90.2,77.3,63.4,69.9,35.1,-12.1,54,23,1,29.97,29.84,9,1,9,0.01
2013-8-3,88.6,71.4,62.5,69.0,20.0,0.8,53,10,1,29.95,29.89,4,0,4,0.00
2013-8-4,83.9,71.4,58.7,63.7,29.1,2.3,56,22,1,30.01,29.88,8,1,8,0.00
2013-8-5,84.4,66.2,52.9,64.1,23.7,-2.1,56,20,1,30.08,29.99,6,0,6,0.00
2013-8-6,73.3,65.8,60.8,13.4,7.7,3.8,1,1,1,30.04,29.96,6,1,6,0.56
2013-8-7,89.1,75.5,66.8,70.1,29.0,8.6,54,17,1,30.05,29.99,10,1,10,0.00
2013-8-8,88.6,77.6,67.0,70.1,27.2,5.3,55,13,1,30.03,29.96,7,1,7,0.00
2013-8-9,94.0,82.3,72.9,74.6,37.4,13.2,54,20,1,29.97,29.87,14,2,14,0.00
2013-8-10,85.7,73.1,68.4,23.0,13.3,9.8,8,1,1,30.07,29.94,10,0,10,1.23
2013-8-11,80.1,72.6,68.8,18.6,13.0,9.9,1,1,1,30.09,29.98,3,0,3,0.02
2013-8-12,90.5,77.3,69.5,68.0,20.3,-0.2,50,5,1,30.01,29.89,4,0,4,0.00
2013-8-13,89.5,75.5,69.7,58.4,17.1,10.7,38,4,1,29.89,29.72,10,1,10,0.11
2013-8-14,75.6,67.1,53.3,58.3,30.4,-1.9,56,28,1,30.08,29.78,9,1,9,0.01
2013-8-15,79.9,61.7,49.9,61.2,14.5,-4.6,55,13,1,30.15,30.07,3,0,3,0.00
2013-8-16,78.5,61.9,49.0,59.6,11.7,-12.9,53,10,1,30.18,30.09,5,0,5,0.00
2013-8-17,81.4,64.5,53.5,42.3,7.6,-1.8,26,2,1,30.20,30.14,5,0,5,0.07
2013-8-18,67.9,65.5,63.5,9.3,7.5,6.0,1,1,1,30.20,30.12,4,0,4,0.48
2013-8-19,69.1,66.4,63.4,10.3,8.2,6.0,1,1,1,30.18,30.06,6,0,6,0.11
2013-8-20,86.0,73.4,67.0,38.9,13.7,8.6,19,1,1,30.15,30.07,4,0,4,0.00
2013-8-21,90.7,75.2,65.7,67.3,20.8,-0.9,47,8,1,30.19,30.06,5,0,5,0.01
2013-8-22,90.4,76.9,66.1,70.7,25.4,7.9,53,11,1,30.08,29.94,6,1,6,0.00
2013-8-23,78.5,66.4,59.2,16.1,8.2,2.7,1,1,1,30.10,29.90,7,0,7,0.40
2013-8-24,83.5,66.7,54.9,62.3,15.0,-0.6,50,9,1,30.29,30.09,5,0,5,0.00
2013-8-25,82.3,65.7,53.6,63.4,18.7,-1.6,54,14,1,30.38,30.26,5,0,5,0.00
2013-8-26,87.7,68.3,50.8,68.4,26.0,-4.0,55,21,1,30.29,30.02,9,1,9,0.00
2013-8-27,90.7,72.1,57.8,70.6,22.6,1.5,54,12,1,30.02,29.88,8,1,8,0.00
2013-8-28,79.6,71.2,68.4,18.2,11.9,9.6,1,1,1,29.93,29.80,8,0,8,0.42
2013-8-29,85.3,74.8,68.4,22.7,14.7,9.8,1,1,1,30.00,29.78,5,0,5,0.00
2013-8-30,88.4,73.5,64.1,66.3,22.4,6.4,49,11,1,30.03,29.89,6,0,6,0.00
2013-8-31,90.0,75.8,65.3,60.5,20.8,7.4,38,7,1,29.92,29.79,9,1,9,0.04
2013-9-1,92.9,76.2,66.6,68.1,20.7,8.4,45,7,1,29.84,29.73,9,1,9,0.00
2013-9-2,91.4,76.8,68.6,70.3,25.9,-2.3,51,12,1,29.81,29.73,8,1,8,0.01
2013-9-3,87.1,75.8,64.4,68.1,31.8,-9.8,55,20,1,29.92,29.71,7,1,7,0.00
2013-9-4,85.0,69.8,57.1,67.0,27.4,1.0,55,21,1,30.07,29.92,9,1,9,0.00
2013-9-5,87.7,69.1,54.5,67.8,24.5,-0.9,56,18,1,30.09,29.98,6,0,6,0.00
2013-9-6,79.9,66.4,53.8,62.3,26.1,-1.4,57,23,1,30.20,30.08,5,0,5,0.00
2013-9-7,80.6,64.3,49.5,62.4,21.7,-6.9,54,19,1,30.12,29.92,9,1,9,0.00
2013-9-8,89.1,70.1,55.1,69.9,23.3,-0.4,55,15,1,29.98,29.86,5,0,5,0.00
2013-9-9,79.9,69.6,64.1,45.8,12.9,6.4,32,4,1,30.15,29.97,5,0,5,0.00
2013-9-10,92.3,76.9,62.5,68.6,27.9,5.2,47,14,1,30.17,30.08,10,1,10,0.00
2013-9-11,93.4,81.1,65.0,72.9,39.1,7.1,53,24,1,30.13,30.00,7,1,7,0.00
2013-9-12,93.1,76.4,64.8,72.1,27.1,6.9,52,14,1,30.00,29.73,11,1,11,0.37
2013-9-13,80.5,69.0,62.3,61.2,23.5,-17.5,54,17,1,29.89,29.69,8,1,8,0.00
2013-9-14,72.4,61.7,50.8,53.2,22.9,-5.3,55,25,1,30.12,29.89,8,1,8,0.00
2013-9-15,79.0,66.8,42.5,59.0,27.6,-10.3,56,25,1,30.21,30.07,6,1,6,0.00
2013-9-16,77.2,62.8,52.9,28.0,5.6,-2.1,17,1,1,30.18,30.04,8,1,8,0.00
2013-9-17,72.0,60.0,46.3,53.4,21.5,-7.4,55,24,1,30.36,30.18,5,1,5,0.00
2013-9-18,74.7,55.4,38.9,55.1,12.2,-13.0,55,17,1,30.30,30.14,5,0,5,0.00
2013-9-19,78.5,60.4,44.3,60.1,17.9,-18.1,55,19,1,30.17,30.06,6,0,6,0.00
2013-9-20,82.1,63.3,50.0,62.6,13.2,-4.5,52,10,1,30.07,29.93,7,0,7,0.00
2013-9-21,74.5,64.2,53.5,46.2,10.5,-1.8,38,6,1,29.95,29.69,12,1,12,0.76
2013-9-22,76.0,63.0,52.9,56.8,16.7,-11.1,55,15,1,29.91,29.71,8,1,8,0.01
2013-9-23,68.8,57.0,46.1,51.0,16.6,-7.5,55,21,1,30.06,29.90,7,1,7,0.00
2013-9-24,74.5,59.4,41.4,56.7,20.5,-18.5,56,23,1,30.07,29.92,6,1,6,0.00
2013-9-25,77.0,57.6,42.3,59.1,13.1,-10.6,55,16,1,29.94,29.84,4,0,4,0.00
2013-9-26,77.6,61.2,50.0,59.2,16.9,-4.5,56,17,1,30.03,29.87,4,0,4,0.00
2013-9-27,72.2,57.2,45.7,48.2,5.0,-9.0,43,6,1,30.18,30.03,4,0,4,0.00
2013-9-28,69.8,57.2,45.2,46.0,7.9,-8.2,44,9,1,30.24,30.15,4,0,4,0.00
2013-9-29,74.7,58.0,45.0,55.7,8.0,-8.4,53,9,1,30.15,30.01,5,0,5,0.00
2013-9-30,78.3,59.1,44.5,59.2,15.5,-18.7,56,17,1,30.06,29.95,7,0,7,0.00
2013-10-1,82.4,62.2,47.5,63.6,15.7,-6.3,54,14,1,30.05,29.96,6,0,6,0.00
2013-10-2,85.7,64.4,49.3,65.9,19.3,-5.0,54,16,1,30.07,29.99,7,0,7,0.00
2013-10-3,81.4,65.5,51.8,56.7,10.0,-6.1,43,5,1,30.09,30.02,2,0,2,0.00
2013-10-4,87.1,68.1,55.1,67.8,19.2,-0.4,54,12,1,30.07,29.99,4,0,4,0.00
2013-10-5,90.9,69.8,56.5,70.4,22.8,0.5,54,15,1,30.07,29.98,6,0,6,0.00
2013-10-6,88.0,72.6,58.7,68.3,31.0,2.3,54,22,1,30.02,29.90,9,1,9,0.00
2013-10-7,76.7,68.2,54.4,16.1,9.6,-1.1,1,1,1,30.00,29.80,10,1,10,0.01
2013-10-8,64.8,53.4,49.3,47.2,2.7,-5.0,53,7,1,30.22,30.02,2,0,2,0.00
2013-10-9,55.4,53.0,49.1,-0.4,-2.2,-5.1,1,1,1,30.20,30.08,6,1,6,0.22
2013-10-10,56.9,54.6,52.2,0.8,-0.9,-2.8,1,1,1,30.08,29.89,7,2,7,0.42
2013-10-11,61.2,58.9,56.7,4.2,2.5,0.7,1,1,1,29.91,29.85,8,1,8,0.01
2013-10-12,67.0,63.6,60.7,8.6,6.1,3.8,1,1,1,30.08,29.89,6,1,6,0.00
2013-10-13,65.9,63.5,60.8,7.8,6.0,4.0,1,1,1,30.24,30.07,5,1,5,0.00
2013-10-14,68.6,58.3,47.0,44.3,4.2,-6.9,43,4,1,30.26,30.16,4,0,4,0.00
2013-10-15,71.3,57.5,43.9,35.3,2.0,-9.2,27,2,1,30.18,30.04,4,0,4,0.00
2013-10-16,72.7,62.0,53.5,13.0,4.8,-1.8,1,1,1,30.04,29.90,4,0,4,0.00
2013-10-29,71.6,53.6,46.6,54.5,44.8,40.9,80,73,55,30.35,30.23,0,0,0,0.03
2013-10-30,67.3,55.5,45.5,57.6,49.8,40.1,88,81,71,30.33,30.16,7,0,7,0.03
2013-10-31,72.4,62.9,51.7,60.7,55.2,47.5,90,77,63,30.20,29.85,6,1,6,0.00
2013-11-1,71.5,69.0,64.1,63.3,61.8,58.1,88,78,71,29.85,29.67,10,2,10,0.01
2013-11-2,72.9,61.3,47.9,60.8,50.2,40.0,89,70,35,29.93,29.66,10,1,10,0.00
2013-11-3,60.8,46.6,34.0,43.0,34.1,27.9,87,65,32,30.41,29.93,12,1,12,0.00
2013-11-4,51.3,40.9,33.8,32.0,28.3,25.6,81,62,40,30.63,30.41,7,1,7,0.00
2013-11-5,55.8,43.4,35.6,45.1,36.4,28.8,82,76,62,30.59,30.46,3,0,3,0.00
2013-11-6,71.3,56.3,42.8,54.7,47.4,38.6,86,73,55,30.47,30.11,7,0,7,0.00
2013-11-7,69.5,57.4,39.1,60.0,51.0,32.3,90,80,62,30.11,29.88,12,1,12,0.01
2013-11-8,57.6,41.8,30.6,34.1,29.0,24.6,86,64,33,30.33,30.09,11,1,11,0.00
2013-11-9,58.9,43.4,27.5,34.8,28.7,22.6,84,59,36,30.38,30.09,9,1,9,0.00
2013-11-10,68.9,50.8,37.6,39.6,32.1,27.0,73,52,24,30.23,29.98,16,2,16,0.00
2013-11-11,59.6,49.5,30.6,34.3,31.0,23.6,77,50,35,30.35,30.07,7,1,7,0.00
2013-11-12,50.0,43.2,32.4,37.3,25.9,14.9,70,51,40,30.42,29.97,12,2,12,0.00
2013-11-13,46.1,33.2,23.4,20.8,17.2,14.7,72,53,33,30.50,30.40,11,1,11,0.00
2013-11-14,61.4,39.7,22.7,27.2,21.0,15.7,76,51,23,30.41,30.26,8,1,8,0.00
2013-11-15,61.0,48.2,34.4,41.8,29.1,21.9,78,49,28,30.29,30.19,10,1,10,0.01
2013-11-16,57.2,53.0,48.4,52.6,48.5,41.8,89,85,78,30.31,30.23,3,0,3,0.01
2013-11-17,67.9,59.7,51.1,60.0,54.4,48.0,91,83,70,30.24,29.82,8,1,8,0.01
2013-11-18,69.8,62.9,52.4,63.7,45.8,26.5,89,58,29,29.96,29.75,10,2,15,0.04
2013-11-19,52.2,44.2,34.6,30.1,27.5,25.2,73,53,38,30.36,29.95,12,1,12,0.00
2013-11-20,50.9,40.2,33.3,32.6,27.9,24.3,80,62,45,30.52,30.36,9,1,9,0.00
2013-11-21,56.7,45.3,34.9,44.1,37.4,29.3,83,74,62,30.54,30.40,5,0,5,0.00
2013-11-22,70.6,58.2,44.3,55.8,49.2,39.2,82,72,59,30.40,30.02,14,2,14,0.00
2013-11-23,62.6,51.7,40.0,55.0,35.3,18.6,79,55,33,30.17,30.01,10,1,10,0.00
2013-11-24,40.0,30.5,21.6,21.3,8.0,1.9,57,39,26,30.54,30.17,16,2,16,0.00
2013-11-25,39.1,29.4,17.6,17.1,12.3,7.1,71,51,34,30.59,30.36,7,1,7,0.01
2013-11-26,60.3,40.9,34.9,58.0,31.7,13.2,92,72,37,30.38,29.56,13,1,13,1.19
2013-11-27,42.7,39.2,32.4,39.5,34.5,18.6,89,84,56,30.10,29.50,10,1,10,1.01
2013-11-28,41.9,31.9,23.4,23.2,20.0,17.3,80,62,43,30.47,30.10,9,1,9,0.00
2013-11-29,45.9,31.9,22.7,25.9,21.3,17.7,83,67,40,30.70,30.44,10,1,10,0.00
2013-11-30,44.1,32.5,23.9,33.4,23.7,18.7,82,71,52,30.70,30.37,5,0,5,0.00
2013-12-1,53.1,35.1,23.6,34.9,26.7,18.5,84,72,45,30.37,30.02,6,0,6,0.00
2013-12-2,58.3,41.8,28.3,39.9,32.5,23.8,85,71,45,30.02,29.85,5,0,5,0.00
2013-12-3,59.6,44.5,33.5,42.9,36.1,28.8,86,74,52,30.01,29.87,5,0,5,0.00
2013-12-4,61.2,53.2,44.3,52.6,47.4,38.8,86,81,73,30.09,30.00,5,0,5,0.00
2013-12-5,64.6,60.0,52.2,60.7,56.1,48.1,89,87,83,30.10,29.98,6,1,6,0.01
2013-12-6,67.9,57.1,43.9,62.8,53.2,40.6,90,87,76,30.12,29.93,9,2,9,0.05
2013-12-7,45.9,40.3,33.7,40.8,33.7,25.8,90,78,62,30.52,30.09,10,1,10,0.30
2013-12-8,33.7,32.7,31.7,30.7,27.5,22.8,90,81,67,30.55,30.29,6,1,6,0.33
2013-12-9,39.2,35.7,32.9,36.3,32.7,30.1,91,89,88,30.29,30.04,6,0,6,0.54
2013-12-10,38.7,36.4,31.5,35.4,33.3,27.3,91,89,84,30.25,29.98,6,0,6,0.31
2013-12-11,46.1,36.0,23.8,29.6,25.9,20.4,88,68,45,30.42,30.26,8,1,8,0.00
2013-12-12,38.7,27.8,23.4,23.1,20.1,16.9,84,74,45,30.41,30.25,8,0,8,0.00
2013-12-13,47.7,34.1,22.9,24.2,20.0,16.3,77,58,36,30.33,30.22,12,1,12,0.00
2013-12-14,43.9,37.8,32.6,40.0,32.0,24.0,90,80,66,30.30,29.73,8,1,8,0.67
2013-12-15,54.4,43.1,35.5,41.1,33.4,24.7,89,70,46,30.00,29.65,13,2,13,0.01
2013-12-16,47.9,38.2,29.7,32.2,28.5,23.7,80,68,53,30.16,29.98,8,1,8,0.00
2013-12-17,53.6,40.5,29.7,39.5,33.2,25.2,86,76,55,30.13,29.90,8,1,8,0.49
2013-12-18,45.2,36.7,28.4,37.5,27.9,22.1,88,72,46,30.24,29.96,13,1,13,0.00
2013-12-19,63.4,44.3,27.7,33.9,27.7,22.1,82,56,31,30.23,30.13,11,1,11,0.00
2013-12-20,65.9,55.3,47.2,51.2,41.2,28.7,73,59,45,30.17,30.03,13,2,13,0.00
2013-12-21,70.7,62.6,54.9,61.0,53.3,46.6,84,72,59,30.10,30.00,12,2,12,0.00
2013-12-22,73.1,66.8,61.4,65.5,61.1,57.5,89,82,75,30.08,29.93,11,2,11,0.46
2013-12-23,65.9,58.5,41.8,62.6,54.1,30.1,90,85,63,30.21,29.96,10,1,10,0.26
2013-12-24,44.6,37.5,28.1,30.9,24.1,8.8,74,59,43,30.47,30.19,12,2,12,0.00
2013-12-25,36.0,27.2,20.0,16.7,13.4,8.6,74,56,42,30.57,30.39,7,1,7,0.00
2013-12-26,50.0,32.4,22.0,27.7,21.4,15.9,81,66,39,30.39,30.22,10,1,10,0.00
2013-12-27,52.2,33.3,23.4,30.7,22.7,18.2,83,67,37,30.45,30.34,7,0,7,0.00
2013-12-28,60.8,39.4,24.5,33.6,25.1,18.9,81,61,31,30.37,30.20,9,1,9,0.00
2013-12-29,52.4,47.3,39.2,49.9,43.2,35.1,92,86,79,30.05,29.60,10,2,10,1.28
2013-12-30,51.8,41.8,34.6,42.7,34.5,28.3,90,76,63,30.17,29.86,6,1,6,0.01
2013-12-31,50.9,38.1,28.1,32.7,25.3,20.5,82,62,34,30.34,30.14,16,2,16,0.00
2014-1-1,50.2,35.2,25.0,32.1,25.3,19.6,82,68,47,30.41,30.13,8,0,8,0.00
2014-1-2,45.0,34.6,28.1,36.6,29.2,22.4,88,81,64,30.13,29.59,5,0,5,0.25